Time;durP1;ratioP1;P1;durP2;ratioP2;P2;SDS_P1;SDS_P2;PMS_P1;PMS_P2;Temp;Humidity;BMP_temperature;BMP_pressure;BME280_temperature;BME280_humidity;BME280_pressure;Samples;Min_cycle;Max_cycle;Signal;HPM_P1;HPM_P2
2024/01/04 00:01:55;;;;;;;10.17;6.37;;;;;;;4.29;100.00;94917.66;5131637;27;20442;-53
2024/01/04 00:04:23;;;;;;;9.83;5.10;;;;;;;4.09;100.00;94922.59;5131838;27;20535;-53
2024/01/04 00:06:52;;;;;;;5.47;4.53;;;;;;;3.83;100.00;94924.00;5130835;27;20438;-53
2024/01/04 00:09:20;;;;;;;7.10;5.60;;;;;;;3.96;100.00;94918.44;5131715;27;20942;-54
2024/01/04 00:11:50;;;;;;;6.03;3.90;;;;;;;4.13;100.00;94918.44;5130971;27;20578;-54
2024/01/04 00:14:19;;;;;;;10.30;6.57;;;;;;;4.25;100.00;94921.81;5130218;27;20477;-54
2024/01/04 00:16:48;;;;;;;8.63;4.43;;;;;;;4.28;100.00;94919.47;5131741;27;20497;-54
2024/01/04 00:19:16;;;;;;;8.50;7.60;;;;;;;4.38;100.00;94911.75;5131548;27;20435;-54
2024/01/04 00:21:45;;;;;;;12.77;4.87;;;;;;;4.43;100.00;94911.84;5130817;27;20423;-54
2024/01/04 00:24:14;;;;;;;9.40;3.87;;;;;;;4.49;100.00;94918.75;5130739;27;20506;-54
2024/01/04 00:26:43;;;;;;;10.00;7.60;;;;;;;4.52;100.00;94914.84;5130760;27;20442;-54
2024/01/04 00:29:13;;;;;;;5.53;4.40;;;;;;;4.61;100.00;94913.41;5129991;28;20435;-54
2024/01/04 00:31:42;;;;;;;5.57;4.23;;;;;;;4.57;100.00;94901.81;5131781;27;20442;-54
2024/01/04 00:34:11;;;;;;;4.70;4.30;;;;;;;4.53;100.00;94882.31;5132448;27;20434;-54
2024/01/04 00:36:40;;;;;;;7.27;2.93;;;;;;;4.70;100.00;94906.72;5135354;27;20438;-54
2024/01/04 00:39:08;;;;;;;3.73;3.50;;;;;;;4.55;100.00;94900.47;5135612;27;20452;-54
2024/01/04 00:41:37;;;;;;;4.07;3.87;;;;;;;4.51;100.00;94902.75;5135027;27;20521;-54
2024/01/04 00:44:06;;;;;;;3.47;3.23;;;;;;;4.67;100.00;94898.53;5136413;27;20537;-54
2024/01/04 00:46:36;;;;;;;5.37;2.60;;;;;;;4.57;100.00;94891.31;5136007;27;20434;-54
2024/01/04 00:49:04;;;;;;;7.70;3.77;;;;;;;4.57;100.00;94888.69;5135243;27;20435;-54
2024/01/04 00:51:33;;;;;;;15.13;4.13;;;;;;;4.57;100.00;94893.94;5134250;27;20447;-54
2024/01/04 00:54:02;;;;;;;4.63;4.10;;;;;;;4.57;100.00;94896.56;5135380;27;20438;-54
2024/01/04 00:56:34;;;;;;;13.23;4.00;;;;;;;4.63;100.00;94903.44;5125871;27;20442;-54
2024/01/04 00:59:04;;;;;;;2.00;1.90;;;;;;;4.46;100.00;94873.81;5132465;27;20477;-54
2024/01/04 01:01:33;;;;;;;3.80;3.60;;;;;;;4.68;100.00;94905.38;5134597;27;20797;-54
2024/01/04 01:04:03;;;;;;;4.63;3.60;;;;;;;4.68;100.00;94903.50;5134565;27;20979;-54
2024/01/04 01:06:32;;;;;;;3.37;3.17;;;;;;;4.50;100.00;94885.44;5136180;27;20430;-54
2024/01/04 01:09:01;;;;;;;3.23;3.00;;;;;;;4.27;100.00;94890.88;5134041;27;20517;-55
2024/01/04 01:11:30;;;;;;;6.30;3.40;;;;;;;4.15;100.00;94890.19;5135030;27;21077;-54
2024/01/04 01:13:58;;;;;;;11.33;4.90;;;;;;;4.10;100.00;94888.25;5135345;27;20433;-54
2024/01/04 01:16:27;;;;;;;4.87;3.20;;;;;;;4.08;100.00;94900.00;5135763;27;20495;-54
2024/01/04 01:18:55;;;;;;;4.57;4.10;;;;;;;3.33;100.00;94844.53;5108834;27;20477;-54
2024/01/04 01:21:25;;;;;;;4.90;4.27;;;;;;;2.81;100.00;94896.94;5135354;27;20458;-54
2024/01/04 01:23:54;;;;;;;8.20;4.37;;;;;;;2.75;100.00;94905.75;5135888;27;20518;-54
2024/01/04 01:26:23;;;;;;;6.30;4.27;;;;;;;2.76;100.00;94903.94;5134789;27;20446;-54
2024/01/04 01:28:51;;;;;;;7.00;3.87;;;;;;;3.18;100.00;94905.28;5135411;27;20434;-54
2024/01/04 01:31:20;;;;;;;3.00;2.80;;;;;;;3.30;100.00;94903.41;5133994;27;20442;-54
2024/01/04 01:33:48;;;;;;;3.17;2.53;;;;;;;3.00;100.00;94853.09;5134353;27;20438;-54
2024/01/04 01:36:17;;;;;;;2.43;1.57;;;;;;;3.39;100.00;94881.03;5134811;27;20445;-52
2024/01/04 01:38:47;;;;;;;6.40;3.07;;;;;;;3.52;100.00;94872.88;5134785;27;21016;-53
2024/01/04 01:41:16;;;;;;;3.20;3.00;;;;;;;3.50;100.00;94880.19;5134882;27;20452;-53
2024/01/04 01:43:44;;;;;;;3.80;3.40;;;;;;;3.55;100.00;94889.97;5135167;27;20430;-53
2024/01/04 01:46:13;;;;;;;4.03;2.30;;;;;;;3.63;100.00;94886.97;5133882;27;20869;-53
2024/01/04 01:48:42;;;;;;;4.30;4.00;;;;;;;3.45;100.00;94864.38;5133320;27;20442;-53
2024/01/04 01:51:13;;;;;;;4.83;3.70;;;;;;;3.56;100.00;94881.88;5134388;27;20438;-53
2024/01/04 01:53:43;;;;;;;8.40;5.70;;;;;;;3.15;100.00;94890.84;5134018;27;20527;-53
2024/01/04 01:56:13;;;;;;;26.10;4.50;;;;;;;3.22;100.00;94901.16;5134500;27;20491;-53
2024/01/04 01:58:43;;;;;;;18.47;5.50;;;;;;;3.36;100.00;94894.63;5135013;27;20473;-53
2024/01/04 02:01:11;;;;;;;3.40;3.30;;;;;;;3.09;100.00;94886.50;5134030;27;20443;-53
2024/01/04 02:03:41;;;;;;;5.83;3.80;;;;;;;3.21;100.00;94887.25;5133516;27;20430;-54
2024/01/04 02:06:09;;;;;;;2.30;2.10;;;;;;;3.36;100.00;94899.06;5133630;27;20438;-53
2024/01/04 02:08:38;;;;;;;9.97;2.33;;;;;;;3.41;100.00;94893.91;5134257;27;20479;-53
2024/01/04 02:11:07;;;;;;;9.30;2.23;;;;;;;3.20;100.00;94890.13;5133753;27;20441;-54
2024/01/04 02:13:37;;;;;;;6.20;2.30;;;;;;;3.38;100.00;94900.41;5133655;27;20434;-54
2024/01/04 02:16:06;;;;;;;5.50;3.23;;;;;;;3.50;100.00;94900.34;5134120;27;20434;-54
2024/01/04 02:18:35;;;;;;;4.37;2.10;;;;;;;3.59;100.00;94902.34;5134102;27;20477;-54
2024/01/04 02:21:05;;;;;;;4.00;2.20;;;;;;;3.54;100.00;94872.66;5134691;27;20441;-54
2024/01/04 02:23:35;;;;;;;2.77;2.67;;;;;;;3.60;100.00;94862.03;5134612;27;20445;-54
2024/01/04 02:26:04;;;;;;;3.23;3.00;;;;;;;3.15;100.00;94848.94;5134551;27;20515;-54
2024/01/04 02:28:32;;;;;;;4.93;3.50;;;;;;;3.32;100.00;94862.06;5133793;27;20449;-54
2024/01/04 02:31:01;;;;;;;5.33;2.10;;;;;;;3.44;100.00;94868.03;5134794;27;20438;-54
2024/01/04 02:33:30;;;;;;;3.70;3.40;;;;;;;3.33;100.00;94866.28;5133766;27;20529;-54
2024/01/04 02:35:58;;;;;;;6.90;3.63;;;;;;;3.37;100.00;94867.38;5133917;27;20819;-54
2024/01/04 02:38:27;;;;;;;9.63;3.03;;;;;;;3.36;100.00;94878.91;5133101;27;20478;-54
2024/01/04 02:40:57;;;;;;;2.50;1.70;;;;;;;3.27;100.00;94875.06;5133236;27;20447;-53
2024/01/04 02:43:25;;;;;;;4.80;2.73;;;;;;;2.78;100.00;94807.66;5125002;27;20477;-54
2024/01/04 02:45:54;;;;;;;7.37;1.80;;;;;;;3.23;100.00;94876.56;5127878;27;20439;-54
2024/01/04 02:48:23;;;;;;;3.77;3.47;;;;;;;3.26;100.00;94877.94;5133772;27;20445;-53
2024/01/04 02:50:51;;;;;;;5.27;3.10;;;;;;;3.42;100.00;94874.53;5133181;27;20824;-53
2024/01/04 02:53:20;;;;;;;2.43;2.23;;;;;;;3.32;100.00;94875.16;5133744;27;20478;-54
2024/01/04 02:55:49;;;;;;;3.30;1.90;;;;;;;3.31;100.00;94852.63;5134082;27;20517;-53
2024/01/04 02:58:19;;;;;;;2.90;2.07;;;;;;;3.22;100.00;94828.63;5132844;27;20822;-53
2024/01/04 03:00:48;;;;;;;3.17;2.97;;;;;;;3.52;100.00;94870.28;5133050;27;20446;-53
2024/01/04 03:03:17;;;;;;;5.00;2.87;;;;;;;3.60;100.00;94883.00;5132609;27;20525;-54
2024/01/04 03:05:45;;;;;;;2.20;2.10;;;;;;;3.41;100.00;94880.81;5131865;27;20768;-53
2024/01/04 03:08:15;;;;;;;5.93;2.77;;;;;;;2.47;100.00;94812.31;5133484;27;20810;-53
2024/01/04 03:10:44;;;;;;;2.13;2.03;;;;;;;2.93;100.00;94874.19;5133177;27;20438;-54
2024/01/04 03:13:12;;;;;;;2.60;2.50;;;;;;;3.02;100.00;94885.88;5133627;27;20817;-54
2024/01/04 03:15:42;;;;;;;4.10;3.00;;;;;;;3.03;100.00;94890.09;5106035;27;20438;-54
2024/01/04 03:18:11;;;;;;;3.10;2.80;;;;;;;2.93;100.00;94899.56;5131806;27;20859;-52
2024/01/04 03:20:40;;;;;;;2.77;2.40;;;;;;;3.15;100.00;94903.13;5132225;27;20460;-54
2024/01/04 03:23:09;;;;;;;2.30;2.20;;;;;;;3.23;100.00;94879.19;5133151;27;20521;-53
2024/01/04 03:25:37;;;;;;;2.23;2.13;;;;;;;3.38;100.00;94900.41;5133361;27;20434;-53
2024/01/04 03:28:06;;;;;;;1.70;1.60;;;;;;;3.22;100.00;94877.59;5132901;27;20442;-54
2024/01/04 03:30:35;;;;;;;2.90;2.80;;;;;;;3.49;100.00;94880.44;5132156;27;20446;-54
2024/01/04 03:33:05;;;;;;;3.33;2.03;;;;;;;3.10;100.00;94808.78;5123318;27;20439;-54
2024/01/04 03:35:34;;;;;;;3.03;2.07;;;;;;;3.50;100.00;94861.06;5131644;27;20438;-55
2024/01/04 03:38:03;;;;;;;2.93;2.73;;;;;;;3.47;100.00;94885.91;5131708;27;20438;-55
2024/01/04 03:40:31;;;;;;;2.93;2.40;;;;;;;3.42;100.00;94882.38;5131459;27;20462;-54
2024/01/04 03:43:00;;;;;;;4.10;3.90;;;;;;;3.46;100.00;94891.38;5132261;27;20926;-54
2024/01/04 03:45:29;;;;;;;1.90;1.80;;;;;;;3.53;100.00;94884.97;5132104;27;20442;-55
2024/01/04 03:47:57;;;;;;;5.27;3.90;;;;;;;3.65;100.00;94888.31;5132637;27;20496;-54
2024/01/04 03:50:28;;;;;;;4.97;3.20;;;;;;;3.52;100.00;94875.50;5132026;27;20449;-55
2024/01/04 03:52:57;;;;;;;4.50;4.20;;;;;;;3.30;100.00;94892.94;5132636;27;20468;-54
2024/01/04 03:55:25;;;;;;;3.60;3.40;;;;;;;3.42;100.00;94898.91;5132142;27;20515;-54
2024/01/04 03:57:54;;;;;;;3.03;2.90;;;;;;;3.27;100.00;94890.78;5132482;27;20442;-55
2024/01/04 04:00:22;;;;;;;9.20;3.10;;;;;;;2.79;100.00;94843.25;5132595;27;21005;-54
2024/01/04 04:02:52;;;;;;;2.10;2.00;;;;;;;3.02;100.00;94864.13;5119471;27;20801;-54
2024/01/04 04:05:21;;;;;;;2.00;1.90;;;;;;;3.55;100.00;94893.38;5131407;27;20442;-54
2024/01/04 04:07:51;;;;;;;9.37;1.53;;;;;;;3.39;100.00;94901.22;5131827;27;20877;-54
2024/01/04 04:10:19;;;;;;;1.90;1.80;;;;;;;3.46;100.00;94894.81;5131488;27;20435;-54
2024/01/04 04:12:48;;;;;;;3.70;3.33;;;;;;;3.33;100.00;94900.31;5131880;27;20526;-54
2024/01/04 04:15:16;;;;;;;2.70;2.50;;;;;;;3.31;100.00;94897.16;5132284;27;20531;-54
2024/01/04 04:17:45;;;;;;;4.33;2.57;;;;;;;2.86;100.00;94817.78;5132758;27;20879;-54
2024/01/04 04:20:14;;;;;;;5.83;2.20;;;;;;;3.20;100.00;94890.13;5118690;27;20466;-54
2024/01/04 04:22:43;;;;;;;3.17;2.67;;;;;;;3.21;100.00;94897.72;5131259;27;20892;-54
2024/01/04 04:25:13;;;;;;;1.70;1.60;;;;;;;3.31;100.00;94904.22;5131194;27;20930;-54
2024/01/04 04:27:42;;;;;;;5.60;2.03;;;;;;;3.00;100.00;94910.69;5131427;27;20438;-54
2024/01/04 04:30:11;;;;;;;6.43;2.00;;;;;;;3.00;100.00;94918.53;5131967;27;20804;-55
2024/01/04 04:32:40;;;;;;;2.30;2.20;;;;;;;3.00;100.00;94923.78;5130743;28;20430;-54
2024/01/04 04:35:09;;;;;;;3.83;3.60;;;;;;;2.58;100.00;94843.91;5105137;28;20446;-54
2024/01/04 04:37:38;;;;;;;3.30;2.60;;;;;;;2.84;100.00;94875.56;5130999;27;20434;-54
2024/01/04 04:40:07;;;;;;;1.77;1.53;;;;;;;3.16;100.00;94908.13;5131479;27;20494;-54
2024/01/04 04:42:41;;;;;;;2.60;2.50;;;;;;;3.15;100.00;94905.75;5130703;28;20442;-54
2024/01/04 04:45:10;;;;;;;3.03;2.83;;;;;;;3.24;100.00;94914.03;5130602;27;20435;-54
2024/01/04 04:47:39;;;;;;;5.70;1.80;;;;;;;3.42;100.00;94919.88;5130875;28;20454;-53
2024/01/04 04:50:09;;;;;;;1.57;1.40;;;;;;;3.37;100.00;94909.28;5131441;27;20447;-54
2024/01/04 04:52:37;;;;;;;3.20;2.43;;;;;;;3.29;100.00;94907.03;5131222;27;20458;-53
2024/01/04 04:55:07;;;;;;;2.80;2.60;;;;;;;3.17;100.00;94894.00;5130541;27;20503;-55
2024/01/04 04:57:37;;;;;;;4.00;3.70;;;;;;;3.15;100.00;94896.06;5132048;28;20470;-53
2024/01/04 05:00:09;;;;;;;3.03;2.83;;;;;;;3.12;100.00;94880.81;5130320;27;21049;-53
2024/01/04 05:02:37;;;;;;;4.80;2.60;;;;;;;3.20;100.00;94896.16;5131281;27;20445;-54
2024/01/04 05:05:07;;;;;;;1.37;1.37;;;;;;;3.21;100.00;94905.59;5130074;28;20494;-54
2024/01/04 05:07:35;;;;;;;2.97;2.77;;;;;;;3.25;100.00;94894.66;5130483;28;20533;-54
2024/01/04 05:10:05;;;;;;;1.47;1.40;;;;;;;3.05;100.00;94858.41;5131594;27;20481;-54
2024/01/04 05:12:33;;;;;;;2.77;2.57;;;;;;;3.25;100.00;94910.38;5104340;28;20438;-54
2024/01/04 05:15:02;;;;;;;8.60;3.73;;;;;;;3.28;100.00;94907.28;5131373;28;20481;-54
2024/01/04 05:17:32;;;;;;;5.90;2.47;;;;;;;2.95;100.00;94889.63;5130716;28;20503;-54
2024/01/04 05:20:03;;;;;;;3.17;2.97;;;;;;;3.04;100.00;94902.13;5128876;28;20476;-54
2024/01/04 05:22:32;;;;;;;3.53;2.67;;;;;;;3.22;100.00;94911.63;5126277;27;20446;-54
2024/01/04 05:25:00;;;;;;;2.30;2.20;;;;;;;3.34;100.00;94912.38;5134837;27;20434;-54
2024/01/04 05:27:29;;;;;;;1.37;1.23;;;;;;;3.37;100.00;94918.97;5134639;27;20503;-54
2024/01/04 05:29:58;;;;;;;1.70;1.60;;;;;;;3.39;100.00;94912.47;5134830;27;20525;-55
2024/01/04 05:32:26;;;;;;;7.40;6.50;;;;;;;3.12;100.00;94909.63;5134900;27;20491;-54
2024/01/04 05:34:57;;;;;;;7.93;2.23;;;;;;;2.93;100.00;94916.06;5135120;27;20798;-54
2024/01/04 05:37:25;;;;;;;16.33;4.83;;;;;;;2.60;100.00;94918.50;5135141;27;20438;-53
2024/01/04 05:39:54;;;;;;;3.20;3.03;;;;;;;2.75;100.00;94910.97;5135211;27;20993;-54
2024/01/04 05:42:26;;;;;;;3.93;2.40;;;;;;;3.02;100.00;94911.25;5135290;27;20438;-54
2024/01/04 05:44:54;;;;;;;2.93;2.07;;;;;;;3.00;100.00;94915.91;5134373;27;20438;-54
2024/01/04 05:47:23;;;;;;;3.20;1.70;;;;;;;3.01;100.00;94917.53;5135064;27;20441;-55
2024/01/04 05:49:52;;;;;;;5.63;3.47;;;;;;;3.04;100.00;94917.03;5134143;27;20441;-54
2024/01/04 05:52:22;;;;;;;5.47;3.63;;;;;;;3.26;100.00;94917.22;5134205;27;20985;-54
2024/01/04 05:54:51;;;;;;;1.50;1.40;;;;;;;3.41;100.00;94925.34;5134766;27;20435;-54
2024/01/04 05:57:19;;;;;;;2.30;1.17;;;;;;;3.56;100.00;94913.31;5133796;27;21009;-54
2024/01/04 05:59:48;;;;;;;2.60;1.13;;;;;;;3.56;100.00;94907.28;5134693;27;20593;-54
2024/01/04 06:02:17;;;;;;;2.87;1.67;;;;;;;3.51;100.00;94889.66;5134676;27;20521;-54
2024/01/04 06:04:45;;;;;;;2.10;2.00;;;;;;;3.51;100.00;94910.63;5133989;27;21010;-54
2024/01/04 06:07:14;;;;;;;2.17;1.67;;;;;;;3.62;100.00;94912.38;5134492;27;20443;-54
2024/01/04 06:09:44;;;;;;;1.50;1.00;;;;;;;3.16;100.00;94902.09;5134801;27;20450;-54
2024/01/04 06:12:13;;;;;;;1.43;1.13;;;;;;;3.67;100.00;94930.00;5134726;27;20483;-54
2024/01/04 06:14:41;;;;;;;2.00;1.80;;;;;;;3.46;100.00;94917.59;5135040;27;20435;-55
2024/01/04 06:17:10;;;;;;;1.27;1.17;;;;;;;3.64;100.00;94920.78;5134182;27;20443;-55
2024/01/04 06:19:39;;;;;;;2.60;1.70;;;;;;;3.87;100.00;94927.75;5135001;27;20450;-56
2024/01/04 06:22:07;;;;;;;2.33;2.13;;;;;;;3.72;100.00;94933.50;5134008;27;20441;-55
2024/01/04 06:24:36;;;;;;;2.97;2.57;;;;;;;3.36;100.00;94906.91;5133998;27;20434;-54
2024/01/04 06:27:06;;;;;;;2.77;2.67;;;;;;;3.69;100.00;94915.63;5134550;27;20515;-54
2024/01/04 06:29:35;;;;;;;3.27;2.87;;;;;;;3.83;100.00;94932.66;5133723;27;21005;-53
2024/01/04 06:32:04;;;;;;;1.67;1.57;;;;;;;4.12;100.00;94937.84;5133362;27;20461;-54
2024/01/04 06:34:33;;;;;;;1.47;1.40;;;;;;;4.03;100.00;94931.41;5134233;27;20454;-55
2024/01/04 06:37:02;;;;;;;1.67;1.57;;;;;;;3.85;100.00;94937.66;5134438;27;20445;-55
2024/01/04 06:39:31;;;;;;;2.10;1.90;;;;;;;3.26;100.00;94912.78;5133907;27;20837;-53
2024/01/04 06:42:04;;;;;;;3.53;2.00;;;;;;;3.72;100.00;94935.31;5124347;27;20471;-54
2024/01/04 06:44:34;;;;;;;1.87;1.77;;;;;;;3.96;100.00;94928.13;5115355;27;20463;-54
2024/01/04 06:47:15;;;;;;;2.63;1.63;;;;;;;4.09;100.00;94938.31;5114991;27;20440;-54
2024/01/04 06:49:43;;;;;;;2.10;1.47;;;;;;;4.02;100.00;94930.63;5125202;27;20431;-54
2024/01/04 06:52:12;;;;;;;2.10;2.00;;;;;;;3.78;100.00;94931.78;5113159;28;20487;-54
2024/01/04 06:54:41;;;;;;;2.47;2.13;;;;;;;3.89;100.00;94912.56;5123749;27;20544;-55
2024/01/04 06:57:10;;;;;;;3.87;1.50;;;;;;;4.20;100.00;94925.13;5133951;27;20431;-53
2024/01/04 06:59:40;;;;;;;10.40;3.90;;;;;;;4.05;100.00;94916.25;5133664;27;20438;-55
2024/01/04 07:02:09;;;;;;;5.33;4.63;;;;;;;4.11;100.00;94910.03;5133206;27;21101;-54
2024/01/04 07:04:38;;;;;;;5.50;2.20;;;;;;;4.02;100.00;94900.97;5133226;27;20459;-54
2024/01/04 07:07:06;;;;;;;3.77;3.10;;;;;;;3.47;100.00;94823.03;5133493;27;20430;-53
2024/01/04 07:09:37;;;;;;;4.50;1.60;;;;;;;4.40;100.00;94883.44;5133731;27;20522;-53
2024/01/04 07:12:07;;;;;;;5.60;4.30;;;;;;;4.36;100.00;94866.63;5107588;27;20442;-64
2024/01/04 07:14:38;;;;;;;2.70;2.60;;;;;;;4.52;100.00;94896.47;5133622;27;20891;-53
2024/01/04 07:17:08;;;;;;;8.53;3.87;;;;;;;3.46;100.00;94818.84;5133561;27;20434;-54
2024/01/04 07:19:37;;;;;;;3.70;3.17;;;;;;;3.90;100.00;94908.13;5133817;27;20438;-54
2024/01/04 07:22:06;;;;;;;4.03;2.93;;;;;;;3.66;100.00;94904.84;5133740;27;20584;-55
2024/01/04 07:24:35;;;;;;;7.03;5.70;;;;;;;3.13;100.00;94852.81;5132940;27;20426;-55
2024/01/04 07:27:04;;;;;;;7.93;2.53;;;;;;;3.81;100.00;94903.28;5132941;27;20984;-55
2024/01/04 07:29:33;;;;;;;3.53;2.47;;;;;;;3.89;100.00;94890.81;5132633;27;20442;-55
2024/01/04 07:32:02;;;;;;;2.13;1.83;;;;;;;4.29;100.00;94891.44;5133114;27;20503;-53
2024/01/04 07:34:34;;;;;;;2.43;2.23;;;;;;;3.70;100.00;94874.50;5131903;27;20818;-55
2024/01/04 07:37:02;;;;;;;2.40;2.20;;;;;;;4.00;100.00;94905.69;5131802;27;20443;-54
2024/01/04 07:39:31;;;;;;;8.03;1.37;;;;;;;3.79;100.00;94891.44;5132165;27;20529;-54
2024/01/04 07:41:59;;;;;;;2.47;2.27;;;;;;;3.76;100.00;94884.03;5132157;27;20995;-54
2024/01/04 07:44:28;;;;;;;2.67;1.23;;;;;;;3.02;100.00;94885.06;5132014;27;20447;-54
2024/01/04 07:46:57;;;;;;;2.10;2.00;;;;;;;3.38;100.00;94889.94;5133339;27;20435;-55
2024/01/04 07:49:25;;;;;;;3.27;3.00;;;;;;;4.12;100.00;94869.66;5133103;27;20453;-55
2024/01/04 07:51:56;;;;;;;2.73;2.50;;;;;;;4.36;100.00;94879.72;5132940;27;20920;-54
2024/01/04 07:54:26;;;;;;;1.60;1.60;;;;;;;4.16;100.00;94882.06;5130914;27;20939;-55
2024/01/04 07:57:04;;;;;;;1.50;1.40;;;;;;;3.82;100.00;94886.50;5126194;27;20443;-55
2024/01/04 07:59:32;;;;;;;2.90;2.70;;;;;;;3.81;100.00;94886.75;5132768;27;20886;-54
2024/01/04 08:02:01;;;;;;;2.67;2.57;;;;;;;3.23;100.00;94858.25;5132529;27;20494;-54
2024/01/04 08:04:30;;;;;;;2.50;2.30;;;;;;;3.26;100.00;94883.97;5132508;27;20506;-54
2024/01/04 08:07:00;;;;;;;3.13;2.67;;;;;;;3.36;100.00;94844.06;5118040;27;20439;-54
2024/01/04 08:09:29;;;;;;;8.50;2.47;;;;;;;3.91;100.00;94880.88;5131428;27;20434;-54
2024/01/04 08:11:57;;;;;;;2.20;1.73;;;;;;;4.04;100.00;94880.56;5129396;27;20446;-54
2024/01/04 08:14:26;;;;;;;5.93;2.33;;;;;;;4.04;100.00;94872.69;5130549;27;20498;-54
2024/01/04 08:16:55;;;;;;;1.57;1.47;;;;;;;3.98;100.00;94873.63;5130497;27;20434;-54
2024/01/04 08:19:23;;;;;;;3.93;3.73;;;;;;;3.97;100.00;94841.41;5130203;27;20503;-54
2024/01/04 08:21:52;;;;;;;2.93;0.87;;;;;;;4.45;100.00;94875.66;5130080;27;20554;-54
2024/01/04 08:24:22;;;;;;;2.73;1.60;;;;;;;4.43;100.00;94867.22;5131606;27;20438;-54
2024/01/04 08:26:51;;;;;;;2.60;2.33;;;;;;;4.32;100.00;94875.22;5131908;27;20528;-55
2024/01/04 08:29:20;;;;;;;3.23;1.67;;;;;;;4.20;100.00;94870.03;5132153;27;20442;-54
2024/01/04 08:31:49;;;;;;;3.70;3.37;;;;;;;4.48;100.00;94869.94;5132351;28;20502;-55
2024/01/04 08:34:18;;;;;;;2.40;1.40;;;;;;;4.33;100.00;94809.38;5132426;27;20450;-56
2024/01/04 08:36:47;;;;;;;3.47;2.93;;;;;;;4.56;100.00;94865.28;5131814;27;20442;-55
2024/01/04 08:39:15;;;;;;;2.40;2.30;;;;;;;5.03;100.00;94872.44;5131749;28;20509;-55
2024/01/04 08:41:45;;;;;;;6.83;2.73;;;;;;;4.92;100.00;94872.59;5105793;28;20558;-56
2024/01/04 08:44:14;;;;;;;3.43;2.60;;;;;;;5.43;100.00;94866.06;5131958;27;20460;-55
2024/01/04 08:46:43;;;;;;;4.43;2.00;;;;;;;5.70;100.00;94856.31;5130773;27;21019;-55
2024/01/04 08:49:12;;;;;;;3.50;3.13;;;;;;;5.72;100.00;94854.22;5131757;27;20442;-56
2024/01/04 08:51:41;;;;;;;6.00;2.00;;;;;;;5.59;100.00;94849.41;5132284;28;20496;-55
2024/01/04 08:54:10;;;;;;;1.63;1.53;;;;;;;5.56;100.00;94802.59;5131804;28;20442;-56
2024/01/04 08:56:38;;;;;;;3.00;2.80;;;;;;;5.80;100.00;94801.19;5124817;27;20989;-55
2024/01/04 08:59:09;;;;;;;12.23;3.13;;;;;;;6.47;96.93;94835.63;5133372;27;20435;-55
2024/01/04 09:01:38;;;;;;;2.60;2.40;;;;;;;6.57;95.14;94824.34;5136213;27;20465;-55
2024/01/04 09:04:06;;;;;;;4.37;2.53;;;;;;;6.42;97.50;94813.72;5135312;27;20444;-55
2024/01/04 09:06:36;;;;;;;4.90;4.67;;;;;;;6.43;100.00;94802.13;5135690;27;20513;-55
2024/01/04 09:09:07;;;;;;;5.13;3.40;;;;;;;6.72;99.17;94804.13;5135433;27;20438;-55
2024/01/04 09:11:40;;;;;;;3.60;3.50;;;;;;;6.31;97.25;94811.03;5135694;27;20430;-55
2024/01/04 09:14:12;;;;;;;7.70;7.20;;;;;;;5.98;100.00;94792.94;5109761;27;20445;-54
2024/01/04 09:16:43;;;;;;;10.60;5.80;;;;;;;6.00;100.00;94790.84;5134688;27;20441;-55
2024/01/04 09:19:15;;;;;;;2.97;2.87;;;;;;;6.32;100.00;94802.09;5135360;27;20441;-55
2024/01/04 09:21:45;;;;;;;3.87;3.23;;;;;;;6.55;100.00;94800.13;5134595;27;21106;-55
2024/01/04 09:24:14;;;;;;;4.23;1.30;;;;;;;5.98;100.00;94765.84;5135034;27;20438;-55
2024/01/04 09:26:43;;;;;;;2.77;2.57;;;;;;;6.06;100.00;94796.94;5130926;27;20892;-56
2024/01/04 09:29:15;;;;;;;7.50;3.10;;;;;;;6.06;100.00;94776.69;5126699;27;20434;-55
2024/01/04 09:31:44;;;;;;;13.30;5.07;;;;;;;5.92;100.00;94735.31;5135393;27;20443;-55
2024/01/04 09:34:13;;;;;;;5.50;5.27;;;;;;;6.06;100.00;94739.84;5135304;27;20491;-55
2024/01/04 09:36:42;;;;;;;4.50;3.37;;;;;;;6.03;100.00;94753.50;5135142;27;20445;-56
2024/01/04 09:39:14;;;;;;;3.60;2.70;;;;;;;6.12;100.00;94759.09;5135481;27;20517;-54
2024/01/04 09:41:45;;;;;;;4.37;2.30;;;;;;;6.60;100.00;94766.72;5109651;27;20973;-56
2024/01/04 09:44:16;;;;;;;2.90;2.70;;;;;;;6.32;100.00;94761.84;5135044;27;20438;-55
2024/01/04 09:46:45;;;;;;;7.40;2.40;;;;;;;5.60;100.00;94691.44;5126078;27;20470;-56
2024/01/04 09:49:14;;;;;;;3.60;3.27;;;;;;;5.84;100.00;94756.78;5131135;27;20447;-55
2024/01/04 09:51:44;;;;;;;11.40;2.20;;;;;;;6.22;100.00;94765.19;5134939;27;20470;-55
2024/01/04 09:54:13;;;;;;;2.57;2.43;;;;;;;5.42;100.00;94659.50;5134914;27;20434;-55
2024/01/04 09:56:43;;;;;;;3.50;2.10;;;;;;;5.41;100.00;94668.44;5134969;27;20433;-56
2024/01/04 09:59:12;;;;;;;2.90;2.80;;;;;;;5.88;100.00;94737.66;5134525;27;20434;-55
2024/01/04 10:01:43;;;;;;;4.13;1.90;;;;;;;6.10;100.00;94725.13;5134743;27;20438;-55
2024/01/04 10:04:16;;;;;;;2.47;2.37;;;;;;;5.31;100.00;94621.06;5134394;27;21021;-56
2024/01/04 10:06:46;;;;;;;4.43;3.40;;;;;;;4.75;100.00;94682.84;5133845;27;20437;-55
2024/01/04 10:09:20;;;;;;;3.73;1.67;;;;;;;5.57;100.00;94723.47;5133985;27;20461;-55
2024/01/04 10:12:05;;;;;;;10.13;3.33;;;;;;;5.24;100.00;94702.72;5133860;27;20477;-55
2024/01/04 10:14:34;;;;;;;3.73;3.43;;;;;;;4.68;100.00;94621.91;5134672;27;20882;-55
2024/01/04 10:17:05;;;;;;;5.37;4.93;;;;;;;4.69;100.00;94699.59;5134617;27;20434;-55
2024/01/04 10:19:34;;;;;;;1.87;1.57;;;;;;;5.05;100.00;94706.75;5134370;27;20435;-55
2024/01/04 10:22:04;;;;;;;1.80;1.70;;;;;;;5.33;100.00;94716.19;5134557;27;20487;-55
2024/01/04 10:24:37;;;;;;;2.23;2.13;;;;;;;5.39;100.00;94696.81;5134354;27;20443;-55
2024/01/04 10:27:08;;;;;;;2.13;1.93;;;;;;;5.68;100.00;94711.19;5134622;27;20435;-55
2024/01/04 10:29:40;;;;;;;1.63;1.57;;;;;;;5.60;100.00;94711.66;5134407;27;20442;-54
2024/01/04 10:32:13;;;;;;;3.30;3.10;;;;;;;5.49;100.00;94681.88;5134800;27;20435;-55
2024/01/04 10:34:43;;;;;;;4.10;2.20;;;;;;;5.73;100.00;94685.72;5134109;27;20434;-55
2024/01/04 10:37:14;;;;;;;7.97;2.10;;;;;;;6.16;100.00;94675.97;5134039;27;20434;-55
2024/01/04 10:39:45;;;;;;;1.50;1.50;;;;;;;5.79;100.00;94671.56;5133972;27;20433;-55
2024/01/04 10:42:16;;;;;;;2.00;1.67;;;;;;;5.90;100.00;94667.16;5134287;27;20438;-55
2024/01/04 10:44:46;;;;;;;1.70;1.60;;;;;;;5.77;100.00;94663.13;5133807;27;20438;-55
2024/01/04 10:47:16;;;;;;;0.73;0.73;;;;;;;5.97;100.00;94666.97;5133856;27;20435;-55
2024/01/04 10:49:49;;;;;;;4.40;3.97;;;;;;;4.98;100.00;94549.41;5134166;27;20486;-55
2024/01/04 10:52:20;;;;;;;1.43;1.40;;;;;;;6.07;100.00;94659.13;5133451;27;20458;-55
2024/01/04 10:54:54;;;;;;;1.67;1.57;;;;;;;5.98;100.00;94642.22;5133706;27;20488;-56
2024/01/04 10:57:25;;;;;;;2.30;1.60;;;;;;;5.89;100.00;94622.72;5133713;27;20438;-55
2024/01/04 10:59:56;;;;;;;6.03;3.97;;;;;;;5.80;100.00;94525.09;5133945;27;20911;-55
2024/01/04 11:02:27;;;;;;;3.23;1.73;;;;;;;6.53;100.00;94621.34;5133188;27;20852;-56
2024/01/04 11:04:56;;;;;;;4.43;3.97;;;;;;;6.47;100.00;94629.50;5133743;27;20560;-56
2024/01/04 11:07:27;;;;;;;4.70;4.30;;;;;;;6.21;100.00;94613.66;5127554;27;21011;-55
2024/01/04 11:09:57;;;;;;;3.80;3.40;;;;;;;6.45;100.00;94608.72;5126838;27;20444;-55
2024/01/04 11:12:27;;;;;;;3.00;2.80;;;;;;;6.52;100.00;94600.56;5107136;27;20438;-56
2024/01/04 11:14:56;;;;;;;11.93;4.13;;;;;;;6.35;100.00;94612.09;5133178;27;20970;-55
2024/01/04 11:17:47;;;;;;;3.33;2.40;;;;;;;6.44;100.00;94593.16;5133492;27;20513;-55
2024/01/04 11:20:23;;;;;;;7.53;6.17;;;;;;;6.35;100.00;94535.78;5131751;27;20430;-55
2024/01/04 11:23:28;;;;;;;3.50;3.30;;;;;;;6.47;100.00;94582.91;5133289;27;20462;-55
2024/01/04 11:26:18;;;;;;;3.17;2.83;;;;;;;6.57;100.00;94568.97;5116434;27;20441;-55
2024/01/04 11:28:49;;;;;;;4.47;4.07;;;;;;;6.78;100.00;94576.59;5108694;27;20456;-55
2024/01/04 11:31:18;;;;;;;6.77;4.07;;;;;;;6.64;100.00;94536.06;5119420;27;20502;-55
2024/01/04 11:33:50;;;;;;;7.73;3.57;;;;;;;6.83;100.00;94567.94;5133526;27;20814;-55
2024/01/04 11:36:20;;;;;;;3.43;3.13;;;;;;;7.21;100.00;94571.88;5133372;27;20458;-56
2024/01/04 11:38:50;;;;;;;14.90;5.60;;;;;;;6.52;100.00;94472.38;5132996;27;20438;-56
2024/01/04 11:41:19;;;;;;;6.27;3.50;;;;;;;7.00;100.00;94560.56;5132912;27;20434;-54
2024/01/04 11:43:52;;;;;;;5.90;4.53;;;;;;;7.44;100.00;94550.97;5133022;27;20857;-55
2024/01/04 11:46:23;;;;;;;12.90;6.30;;;;;;;7.83;100.00;94542.41;5132810;27;20441;-55